Time;durP1;ratioP1;P1;durP2;ratioP2;P2;SDS_P1;SDS_P2;PMS_P1;PMS_P2;Temp;Humidity;BMP_temperature;BMP_pressure;BME280_temperature;BME280_humidity;BME280_pressure;Samples;Min_cycle;Max_cycle;Signal;HPM_P1;HPM_P2
2021/07/27 00:01:14;;;;;;;8.27;1.73;;;;;;;;;;5050182;28;20108;-69
2021/07/27 00:03:41;;;;;;;4.40;0.68;;;;;;;;;;5047820;28;20067;-70
2021/07/27 00:06:09;;;;;;;6.75;1.75;;;;;;;;;;5057929;28;20451;-70
2021/07/27 00:08:37;;;;;;;9.20;1.45;;;;;;;;;;5049985;28;20033;-70
2021/07/27 00:11:05;;;;;;;6.63;0.90;;;;;;;;;;5051815;28;20040;-70
2021/07/27 00:13:32;;;;;;;6.88;1.33;;;;;;;;;;5052545;28;20056;-71
2021/07/27 00:16:00;;;;;;;13.40;1.55;;;;;;;;;;5047972;28;20036;-69
2021/07/27 00:18:27;;;;;;;8.55;1.25;;;;;;;;;;5056804;28;20026;-70
2021/07/27 00:20:54;;;;;;;6.68;1.08;;;;;;;;;;5045131;28;20116;-71
2021/07/27 00:23:21;;;;;;;5.20;1.20;;;;;;;;;;5051254;28;20164;-70
2021/07/27 00:25:49;;;;;;;5.20;0.80;;;;;;;;;;5052021;28;20075;-71
2021/07/27 00:28:16;;;;;;;4.78;0.82;;;;;;;;;;5048563;28;20107;-71
2021/07/27 00:30:43;;;;;;;5.40;0.93;;;;;;;;;;5049332;28;20033;-71
2021/07/27 00:33:11;;;;;;;5.32;0.98;;;;;;;;;;5049857;28;20103;-70
2021/07/27 00:35:38;;;;;;;4.10;0.77;;;;;;;;;;5050870;28;20059;-71
2021/07/27 00:38:08;;;;;;;4.93;1.00;;;;;;;;;;5050034;28;20033;-69
2021/07/27 00:40:41;;;;;;;6.10;1.00;;;;;;;;;;5044302;28;20569;-70
2021/07/27 00:43:11;;;;;;;4.28;0.68;;;;;;;;;;5046802;28;20075;-70
2021/07/27 00:45:38;;;;;;;6.05;1.33;;;;;;;;;;5034551;28;20383;-70
2021/07/27 00:48:06;;;;;;;2.58;0.60;;;;;;;;;;5049404;28;20086;-68
2021/07/27 00:50:33;;;;;;;4.53;1.27;;;;;;;;;;5049007;28;20035;-69
2021/07/27 00:53:01;;;;;;;5.38;1.00;;;;;;;;;;5047548;28;20477;-68
2021/07/27 00:55:29;;;;;;;6.68;1.10;;;;;;;;;;5051268;28;20378;-67
2021/07/27 00:57:56;;;;;;;5.03;0.70;;;;;;;;;;5043703;28;20033;-70
2021/07/27 01:00:25;;;;;;;4.18;0.88;;;;;;;;;;5050305;28;20041;-70
2021/07/27 01:02:52;;;;;;;6.30;1.08;;;;;;;;;;5047106;28;20024;-69
2021/07/27 01:05:19;;;;;;;4.00;0.90;;;;;;;;;;5047633;28;20358;-69
2021/07/27 01:07:47;;;;;;;6.95;1.67;;;;;;;;;;5047592;28;20134;-69
2021/07/27 01:10:16;;;;;;;5.10;0.90;;;;;;;;;;5051744;28;20501;-68
2021/07/27 01:12:45;;;;;;;5.28;1.05;;;;;;;;;;5049177;28;20032;-69
2021/07/27 01:15:13;;;;;;;4.30;0.65;;;;;;;;;;5045433;28;20037;-69
2021/07/27 01:17:40;;;;;;;5.97;1.05;;;;;;;;;;5050196;28;20091;-68
2021/07/27 01:20:31;;;;;;;5.60;0.73;;;;;;;;;;5049640;28;20029;-69
2021/07/27 01:39:34;;;;;;;3.13;0.68;;;;;;;;;;5047571;28;20064;-70
2021/07/27 01:42:14;;;;;;;6.20;0.95;;;;;;;;;;5047314;28;20045;-70
2021/07/27 01:44:45;;;;;;;5.25;1.13;;;;;;;;;;5050676;28;20067;-70
2021/07/27 01:47:19;;;;;;;4.53;1.30;;;;;;;;;;5057422;28;20037;-70
2021/07/27 01:49:47;;;;;;;6.35;1.02;;;;;;;;;;5047396;28;20117;-70
2021/07/27 01:52:15;;;;;;;5.40;0.93;;;;;;;;;;5048571;28;20493;-70
2021/07/27 01:54:45;;;;;;;6.03;1.23;;;;;;;;;;5045303;28;20044;-70
2021/07/27 01:57:13;;;;;;;5.20;1.10;;;;;;;;;;5032005;28;20091;-72
2021/07/27 01:59:41;;;;;;;4.57;0.77;;;;;;;;;;5042332;28;20600;-71
2021/07/27 02:02:08;;;;;;;8.48;1.20;;;;;;;;;;5051478;28;20538;-71
2021/07/27 02:04:36;;;;;;;4.13;0.65;;;;;;;;;;5056656;28;20036;-68
2021/07/27 02:07:03;;;;;;;7.45;1.23;;;;;;;;;;5058907;28;20092;-71
2021/07/27 02:09:32;;;;;;;7.32;1.20;;;;;;;;;;5053893;28;20032;-71
2021/07/27 02:12:01;;;;;;;4.57;0.80;;;;;;;;;;5051757;28;20044;-71
2021/07/27 02:15:14;;;;;;;2.90;0.52;;;;;;;;;;5048063;28;20029;-72
2021/07/27 02:17:16;;;;;;;5.60;0.70;;;;;;;;;;5031254;28;20033;-72
2021/07/27 02:19:43;;;;;;;6.55;1.63;;;;;;;;;;5050688;28;20024;-70
2021/07/27 02:22:10;;;;;;;6.35;1.08;;;;;;;;;;5050255;28;20036;-71
2021/07/27 02:24:37;;;;;;;4.55;1.13;;;;;;;;;;5053011;28;20036;-71
2021/07/27 02:27:04;;;;;;;5.53;1.70;;;;;;;;;;5057891;28;20048;-71
2021/07/27 02:29:31;;;;;;;3.78;1.27;;;;;;;;;;5054564;28;20048;-71
2021/07/27 02:31:59;;;;;;;4.95;0.85;;;;;;;;;;5051330;28;20465;-71
2021/07/27 02:34:31;;;;;;;4.97;0.90;;;;;;;;;;5054042;28;20096;-71
2021/07/27 02:36:59;;;;;;;5.80;1.10;;;;;;;;;;5044027;28;20112;-71
2021/07/27 02:39:26;;;;;;;6.53;1.13;;;;;;;;;;5049086;28;20029;-71
2021/07/27 02:41:53;;;;;;;3.65;1.13;;;;;;;;;;5051138;28;20063;-73
2021/07/27 02:44:20;;;;;;;4.38;0.88;;;;;;;;;;5051677;28;20029;-71
2021/07/27 02:46:47;;;;;;;5.43;0.73;;;;;;;;;;5052064;28;20028;-70
2021/07/27 02:49:14;;;;;;;7.15;1.00;;;;;;;;;;5052753;28;20025;-70
2021/07/27 02:51:46;;;;;;;6.88;0.70;;;;;;;;;;5049236;28;20079;-71
2021/07/27 02:54:13;;;;;;;4.57;1.05;;;;;;;;;;5042229;28;20029;-71
2021/07/27 02:56:40;;;;;;;7.82;1.35;;;;;;;;;;5051066;28;20021;-73
2021/07/27 02:59:07;;;;;;;5.50;1.35;;;;;;;;;;5051706;28;20047;-69
2021/07/27 03:01:35;;;;;;;4.93;0.70;;;;;;;;;;5060179;28;20040;-71
2021/07/27 03:04:02;;;;;;;5.95;1.15;;;;;;;;;;5052132;28;20032;-73
2021/07/27 03:06:31;;;;;;;6.57;1.17;;;;;;;;;;5049198;28;20021;-72
2021/07/27 03:11:25;;;;;;;3.08;0.60;;;;;;;;;;5051976;28;20029;-71
2021/07/27 03:13:52;;;;;;;7.72;0.90;;;;;;;;;;5050120;28;20040;-71
2021/07/27 03:16:24;;;;;;;4.47;1.20;;;;;;;;;;5051788;28;20167;-72
2021/07/27 03:18:52;;;;;;;3.67;1.02;;;;;;;;;;5050896;28;20028;-71
2021/07/27 03:21:21;;;;;;;3.50;1.00;;;;;;;;;;5050194;28;22101;-70
2021/07/27 03:23:48;;;;;;;4.72;1.00;;;;;;;;;;5044701;28;20043;-71
2021/07/27 03:26:16;;;;;;;3.38;0.75;;;;;;;;;;5051042;28;20409;-71
2021/07/27 03:28:43;;;;;;;4.57;0.80;;;;;;;;;;5045517;28;20041;-70
2021/07/27 03:31:10;;;;;;;6.32;1.15;;;;;;;;;;5047795;28;20029;-71
2021/07/27 03:33:38;;;;;;;5.85;0.90;;;;;;;;;;5048596;28;20025;-70
2021/07/27 03:36:05;;;;;;;6.28;0.85;;;;;;;;;;5047288;28;20021;-70
2021/07/27 03:38:33;;;;;;;3.85;0.85;;;;;;;;;;5047784;28;20033;-70
2021/07/27 03:41:07;;;;;;;2.67;0.60;;;;;;;;;;5046605;28;20041;-70
2021/07/27 03:43:34;;;;;;;3.80;0.63;;;;;;;;;;5054968;28;20029;-69
2021/07/27 03:46:03;;;;;;;6.10;0.60;;;;;;;;;;5040506;28;20032;-70
2021/07/27 03:48:30;;;;;;;6.32;1.17;;;;;;;;;;5041827;28;20064;-70
2021/07/27 03:50:57;;;;;;;4.65;0.70;;;;;;;;;;5044804;28;20044;-70
2021/07/27 03:53:27;;;;;;;6.03;1.00;;;;;;;;;;5043479;28;20478;-69
2021/07/27 03:55:54;;;;;;;3.15;0.90;;;;;;;;;;5047154;28;20457;-69
2021/07/27 03:58:22;;;;;;;5.38;0.90;;;;;;;;;;5047985;28;20039;-70
2021/07/27 04:00:50;;;;;;;4.97;0.77;;;;;;;;;;5049063;28;20040;-70
2021/07/27 04:03:17;;;;;;;6.20;1.45;;;;;;;;;;5048534;28;20067;-70
2021/07/27 04:05:44;;;;;;;4.22;0.95;;;;;;;;;;5047244;28;20029;-70
2021/07/27 04:08:12;;;;;;;6.63;1.00;;;;;;;;;;5049237;28;20036;-70
2021/07/27 04:10:39;;;;;;;4.38;1.05;;;;;;;;;;5049307;28;20098;-71
2021/07/27 04:13:06;;;;;;;5.35;0.80;;;;;;;;;;5048167;28;20096;-70
2021/07/27 04:15:34;;;;;;;3.30;0.80;;;;;;;;;;5054256;28;20036;-70
2021/07/27 04:18:01;;;;;;;4.82;0.75;;;;;;;;;;5051440;28;20504;-70
2021/07/27 04:20:28;;;;;;;4.82;0.68;;;;;;;;;;5044884;28;20034;-69
2021/07/27 04:22:56;;;;;;;5.57;0.90;;;;;;;;;;5040892;28;20032;-69
2021/07/27 04:25:23;;;;;;;4.07;0.75;;;;;;;;;;5048069;28;20549;-71
2021/07/27 04:27:51;;;;;;;6.20;1.45;;;;;;;;;;5048035;28;20052;-72
2021/07/27 04:30:18;;;;;;;3.40;0.85;;;;;;;;;;5050327;28;20143;-71
2021/07/27 04:32:45;;;;;;;7.03;1.00;;;;;;;;;;5048206;28;20021;-71
2021/07/27 04:35:12;;;;;;;8.32;1.58;;;;;;;;;;5050528;28;20416;-71
2021/07/27 04:37:39;;;;;;;6.43;1.23;;;;;;;;;;5047863;28;20028;-70
2021/07/27 04:40:07;;;;;;;5.15;1.02;;;;;;;;;;5038559;28;20034;-70
2021/07/27 04:42:34;;;;;;;7.30;1.08;;;;;;;;;;5044749;28;20032;-71
2021/07/27 04:45:01;;;;;;;4.70;1.05;;;;;;;;;;5034216;28;20486;-70
2021/07/27 04:47:28;;;;;;;6.40;1.60;;;;;;;;;;5043256;28;20037;-71
2021/07/27 04:49:55;;;;;;;5.25;0.70;;;;;;;;;;5051191;28;20029;-70
2021/07/27 04:52:22;;;;;;;3.00;0.90;;;;;;;;;;5045634;28;20709;-71
2021/07/27 04:54:55;;;;;;;7.45;1.15;;;;;;;;;;5041667;28;20030;-70
2021/07/27 04:57:22;;;;;;;3.15;0.68;;;;;;;;;;5044980;28;20093;-70
2021/07/27 04:59:49;;;;;;;4.70;1.33;;;;;;;;;;5045790;28;20560;-71
2021/07/27 05:02:16;;;;;;;6.15;1.08;;;;;;;;;;5040386;28;20017;-72
2021/07/27 05:04:44;;;;;;;2.95;0.57;;;;;;;;;;5045190;28;20478;-70
2021/07/27 05:07:11;;;;;;;7.82;0.93;;;;;;;;;;5038766;28;20029;-71
2021/07/27 05:09:38;;;;;;;5.07;0.80;;;;;;;;;;5064713;28;20032;-70
2021/07/27 05:12:06;;;;;;;7.22;0.88;;;;;;;;;;5047451;28;20040;-71
2021/07/27 05:14:33;;;;;;;5.10;1.10;;;;;;;;;;5042616;28;20017;-72
2021/07/27 05:17:07;;;;;;;9.88;1.77;;;;;;;;;;5037645;28;20493;-71
2021/07/27 05:19:38;;;;;;;3.83;0.70;;;;;;;;;;5054535;28;20050;-71
2021/07/27 05:22:05;;;;;;;4.93;1.13;;;;;;;;;;5044061;28;20115;-71
2021/07/27 05:24:32;;;;;;;6.13;1.27;;;;;;;;;;5037849;28;20029;-71
2021/07/27 05:26:59;;;;;;;3.13;0.73;;;;;;;;;;5041968;28;20036;-71
2021/07/27 05:29:26;;;;;;;3.85;0.70;;;;;;;;;;5050614;28;20538;-70
2021/07/27 05:31:54;;;;;;;3.58;0.82;;;;;;;;;;5044841;28;20070;-71
2021/07/27 05:34:21;;;;;;;3.40;0.90;;;;;;;;;;5032032;28;20453;-69
2021/07/27 05:36:49;;;;;;;3.35;0.60;;;;;;;;;;5050110;28;20036;-70
2021/07/27 05:39:16;;;;;;;4.53;1.00;;;;;;;;;;5050578;28;20717;-71
2021/07/27 05:41:43;;;;;;;3.45;0.93;;;;;;;;;;5052494;28;20524;-71
2021/07/27 05:44:11;;;;;;;5.97;0.88;;;;;;;;;;5051512;28;20485;-71
2021/07/27 05:46:38;;;;;;;3.97;0.93;;;;;;;;;;5048683;28;20071;-72
2021/07/27 05:49:09;;;;;;;4.90;0.93;;;;;;;;;;5044237;28;20486;-71
2021/07/27 05:51:36;;;;;;;2.65;0.70;;;;;;;;;;5045720;28;20033;-71
2021/07/27 05:54:03;;;;;;;3.05;1.02;;;;;;;;;;5053921;28;20017;-70
2021/07/27 05:56:30;;;;;;;5.65;0.90;;;;;;;;;;5058510;28;20029;-71
2021/07/27 05:58:57;;;;;;;3.75;0.73;;;;;;;;;;5066248;28;20489;-71
2021/07/27 06:01:25;;;;;;;4.93;0.88;;;;;;;;;;5050847;28;20033;-71
2021/07/27 06:03:52;;;;;;;2.97;0.80;;;;;;;;;;5056765;28;20044;-71
2021/07/27 06:06:19;;;;;;;2.97;0.60;;;;;;;;;;5058931;28;20090;-71
2021/07/27 06:08:46;;;;;;;5.18;0.85;;;;;;;;;;5070901;28;20028;-71
2021/07/27 06:11:13;;;;;;;3.00;0.70;;;;;;;;;;5065309;28;20075;-71
2021/07/27 06:13:41;;;;;;;3.80;0.70;;;;;;;;;;5047777;28;20063;-71
2021/07/27 06:16:08;;;;;;;3.33;0.73;;;;;;;;;;5037546;28;20116;-71
2021/07/27 06:18:38;;;;;;;4.13;0.80;;;;;;;;;;5046853;28;20486;-71
2021/07/27 06:21:05;;;;;;;3.60;0.65;;;;;;;;;;5054198;28;20401;-71
2021/07/27 06:23:32;;;;;;;3.83;0.50;;;;;;;;;;5051302;28;20057;-72
2021/07/27 06:26:04;;;;;;;3.60;0.63;;;;;;;;;;5068308;28;20064;-71
2021/07/27 06:28:32;;;;;;;4.00;0.95;;;;;;;;;;5053834;28;20036;-70
2021/07/27 06:30:59;;;;;;;3.35;0.75;;;;;;;;;;5049426;28;20143;-69
2021/07/27 06:33:26;;;;;;;2.45;0.47;;;;;;;;;;5053181;28;20132;-70
2021/07/27 06:35:57;;;;;;;4.32;1.00;;;;;;;;;;5054592;28;20116;-70
2021/07/27 06:38:25;;;;;;;4.78;0.88;;;;;;;;;;5051571;28;20021;-70
2021/07/27 06:40:53;;;;;;;3.40;0.70;;;;;;;;;;5054112;28;20500;-70
2021/07/27 06:43:20;;;;;;;2.38;0.68;;;;;;;;;;5052986;28;20056;-70
2021/07/27 06:45:56;;;;;;;3.58;0.63;;;;;;;;;;5064319;28;20568;-70
2021/07/27 06:48:27;;;;;;;3.63;0.50;;;;;;;;;;5042514;28;20098;-69
2021/07/27 06:50:54;;;;;;;5.13;0.63;;;;;;;;;;5055165;28;20465;-70
2021/07/27 06:53:23;;;;;;;7.05;0.80;;;;;;;;;;5068446;28;20505;-70
2021/07/27 06:55:50;;;;;;;3.58;0.68;;;;;;;;;;5052388;28;20029;-70
2021/07/27 06:58:17;;;;;;;6.15;0.73;;;;;;;;;;5069259;28;20044;-70
2021/07/27 07:00:45;;;;;;;6.75;1.15;;;;;;;;;;5067268;28;20119;-71
2021/07/27 07:03:12;;;;;;;3.65;0.60;;;;;;;;;;5061131;28;20090;-70
2021/07/27 07:05:42;;;;;;;4.18;0.50;;;;;;;;;;5060846;28;20128;-68
2021/07/27 07:08:09;;;;;;;3.90;0.63;;;;;;;;;;5065505;28;20028;-70
2021/07/27 07:10:36;;;;;;;4.38;0.70;;;;;;;;;;5057442;28;20027;-71
2021/07/27 07:13:04;;;;;;;3.25;0.60;;;;;;;;;;5051007;28;20092;-70
2021/07/27 07:15:31;;;;;;;4.40;0.80;;;;;;;;;;5049258;28;20053;-70
2021/07/27 07:17:58;;;;;;;4.75;0.80;;;;;;;;;;5051576;28;20098;-70
2021/07/27 07:20:27;;;;;;;5.57;1.50;;;;;;;;;;5051493;28;20037;-71
2021/07/27 07:22:54;;;;;;;3.92;0.65;;;;;;;;;;5051844;28;20070;-71
2021/07/27 07:25:21;;;;;;;2.78;0.50;;;;;;;;;;5047461;28;20107;-69
2021/07/27 07:27:48;;;;;;;3.80;0.85;;;;;;;;;;5049259;28;20060;-71
2021/07/27 07:30:15;;;;;;;3.92;0.80;;;;;;;;;;5052243;28;20542;-72
2021/07/27 07:32:43;;;;;;;3.60;0.75;;;;;;;;;;5051896;28;20154;-72
2021/07/27 07:35:10;;;;;;;6.13;0.95;;;;;;;;;;5052720;28;20055;-72
2021/07/27 07:37:37;;;;;;;3.60;0.88;;;;;;;;;;5047868;28;20029;-71
2021/07/27 07:40:05;;;;;;;7.45;2.13;;;;;;;;;;5054251;28;20045;-71
2021/07/27 07:42:32;;;;;;;7.38;1.65;;;;;;;;;;5052179;28;20116;-72
2021/07/27 07:44:59;;;;;;;7.40;2.20;;;;;;;;;;5048980;28;20038;-71
2021/07/27 07:47:26;;;;;;;6.90;0.93;;;;;;;;;;5047374;28;20025;-72
2021/07/27 07:49:53;;;;;;;8.65;2.03;;;;;;;;;;5064422;28;20057;-73
2021/07/27 07:52:20;;;;;;;3.55;1.40;;;;;;;;;;5054409;28;20492;-71
2021/07/27 07:54:47;;;;;;;3.78;0.80;;;;;;;;;;5063572;28;20087;-74
2021/07/27 07:57:14;;;;;;;5.20;1.10;;;;;;;;;;5056630;28;20037;-73
2021/07/27 07:59:41;;;;;;;5.82;1.00;;;;;;;;;;5044219;28;20448;-73
2021/07/27 08:02:09;;;;;;;7.40;0.93;;;;;;;;;;5053005;28;20478;-73
2021/07/27 08:04:36;;;;;;;7.00;1.00;;;;;;;;;;5052069;28;20025;-71
2021/07/27 08:07:05;;;;;;;7.43;1.45;;;;;;;;;;5050578;28;20064;-71
2021/07/27 08:09:32;;;;;;;6.07;1.08;;;;;;;;;;5051637;28;20048;-72
2021/07/27 08:11:59;;;;;;;4.50;1.05;;;;;;;;;;5049022;28;20009;-73
2021/07/27 08:14:26;;;;;;;5.00;1.13;;;;;;;;;;5049219;28;20481;-72
2021/07/27 08:16:55;;;;;;;5.93;1.35;;;;;;;;;;5047628;28;20029;-74
2021/07/27 08:19:22;;;;;;;6.03;1.92;;;;;;;;;;5053962;28;20036;-73
2021/07/27 08:21:49;;;;;;;6.97;1.98;;;;;;;;;;5052046;28;20021;-73
2021/07/27 08:24:17;;;;;;;7.15;1.60;;;;;;;;;;5052133;28;20436;-73
2021/07/27 08:26:44;;;;;;;6.10;1.20;;;;;;;;;;5067261;28;20052;-72
2021/07/27 08:29:11;;;;;;;6.20;1.55;;;;;;;;;;5049199;28;20051;-71
2021/07/27 08:31:38;;;;;;;4.40;1.00;;;;;;;;;;5057371;28;20437;-72
2021/07/27 08:34:05;;;;;;;5.15;1.48;;;;;;;;;;5062011;28;20019;-72
2021/07/27 08:36:32;;;;;;;4.88;0.80;;;;;;;;;;5058703;28;20095;-73
2021/07/27 08:38:59;;;;;;;3.92;0.90;;;;;;;;;;5062921;28;20116;-73
2021/07/27 08:41:29;;;;;;;5.40;1.30;;;;;;;;;;5055879;28;20045;-72
2021/07/27 08:43:57;;;;;;;7.43;1.40;;;;;;;;;;5054973;28;20020;-73
2021/07/27 08:46:25;;;;;;;5.10;1.20;;;;;;;;;;5050444;28;20056;-72
2021/07/27 08:48:53;;;;;;;6.43;1.45;;;;;;;;;;5059109;28;20020;-73
2021/07/27 08:51:23;;;;;;;5.85;1.02;;;;;;;;;;5052638;28;20143;-72
2021/07/27 08:53:51;;;;;;;4.18;0.95;;;;;;;;;;5053846;28;20036;-72
2021/07/27 08:56:18;;;;;;;5.75;0.98;;;;;;;;;;5056943;28;20115;-72
2021/07/27 08:58:45;;;;;;;3.70;1.13;;;;;;;;;;5058462;28;20024;-72
2021/07/27 09:01:13;;;;;;;3.88;0.68;;;;;;;;;;5055143;28;20485;-71
2021/07/27 09:03:49;;;;;;;3.17;0.70;;;;;;;;;;5048603;28;20037;-72
2021/07/27 09:06:16;;;;;;;4.50;0.75;;;;;;;;;;5062366;28;20029;-73
2021/07/27 09:08:43;;;;;;;4.47;1.02;;;;;;;;;;5067592;28;20036;-73
2021/07/27 09:11:13;;;;;;;5.85;0.90;;;;;;;;;;5066376;28;20029;-73
2021/07/27 09:13:40;;;;;;;7.55;1.23;;;;;;;;;;5051132;28;20036;-73
2021/07/27 09:16:07;;;;;;;3.90;1.05;;;;;;;;;;5058773;28;20024;-73
2021/07/27 09:18:37;;;;;;;5.10;1.15;;;;;;;;;;5052204;28;20025;-73
2021/07/27 09:21:04;;;;;;;4.65;1.50;;;;;;;;;;5060390;28;20451;-72
2021/07/27 09:23:31;;;;;;;6.55;1.08;;;;;;;;;;5060820;28;20040;-72
2021/07/27 09:25:59;;;;;;;6.38;1.20;;;;;;;;;;5058311;28;20048;-73
2021/07/27 09:28:27;;;;;;;2.50;0.80;;;;;;;;;;5060770;28;20031;-73
2021/07/27 09:30:58;;;;;;;5.97;1.45;;;;;;;;;;5067675;28;20032;-73
2021/07/27 09:33:32;;;;;;;7.00;1.83;;;;;;;;;;5050657;28;20040;-70
2021/07/27 09:36:00;;;;;;;6.30;1.45;;;;;;;;;;5055494;28;20398;-71
2021/07/27 09:38:31;;;;;;;4.25;1.20;;;;;;;;;;5060701;28;20035;-70
2021/07/27 09:41:00;;;;;;;6.35;1.40;;;;;;;;;;5061351;28;20128;-70
2021/07/27 09:43:28;;;;;;;4.80;1.40;;;;;;;;;;5060632;28;20025;-72
2021/07/27 09:46:01;;;;;;;5.18;1.10;;;;;;;;;;5051168;28;20035;-73
2021/07/27 09:48:29;;;;;;;6.30;1.35;;;;;;;;;;5066510;28;20024;-73
2021/07/27 09:50:58;;;;;;;5.85;1.45;;;;;;;;;;5053572;28;20022;-72
2021/07/27 09:53:26;;;;;;;5.63;1.38;;;;;;;;;;5046645;28;20461;-72
2021/07/27 09:55:53;;;;;;;6.20;1.17;;;;;;;;;;5056168;28;20116;-72
2021/07/27 09:58:20;;;;;;;4.90;1.88;;;;;;;;;;5047070;28;20032;-73
2021/07/27 10:00:50;;;;;;;6.18;1.65;;;;;;;;;;5050056;28;20040;-74
2021/07/27 10:03:23;;;;;;;7.07;1.35;;;;;;;;;;5053265;28;20037;-73
2021/07/27 10:06:00;;;;;;;8.13;1.50;;;;;;;;;;5062639;28;20484;-71
2021/07/27 10:08:31;;;;;;;6.47;1.58;;;;;;;;;;5071159;28;20024;-72
2021/07/27 10:11:27;;;;;;;5.95;1.60;;;;;;;;;;5067936;28;20044;-72
2021/07/27 10:14:05;;;;;;;5.65;1.42;;;;;;;;;;4967477;28;20118;-72
2021/07/27 10:16:32;;;;;;;7.60;2.05;;;;;;;;;;5045164;28;20083;-72
2021/07/27 10:18:59;;;;;;;6.72;2.00;;;;;;;;;;5067576;28;20021;-73
2021/07/27 10:21:28;;;;;;;4.82;1.98;;;;;;;;;;5063291;28;20025;-70
2021/07/27 10:23:57;;;;;;;5.80;1.60;;;;;;;;;;5066141;28;20029;-71
2021/07/27 10:26:28;;;;;;;6.35;1.95;;;;;;;;;;5070603;28;20068;-71
2021/07/27 10:28:55;;;;;;;5.15;1.98;;;;;;;;;;5062600;28;20021;-71
2021/07/27 10:31:38;;;;;;;5.47;1.80;;;;;;;;;;5056302;28;20029;-71
2021/07/27 10:34:07;;;;;;;10.20;1.83;;;;;;;;;;5054496;28;20142;-71
2021/07/27 10:36:35;;;;;;;7.93;1.80;;;;;;;;;;5067053;28;20021;-72
2021/07/27 10:39:09;;;;;;;6.15;1.65;;;;;;;;;;5053833;28;20021;-73
2021/07/27 10:41:38;;;;;;;5.40;1.63;;;;;;;;;;5058364;28;20501;-72
2021/07/27 10:44:06;;;;;;;5.75;1.45;;;;;;;;;;5050861;28;20029;-73
2021/07/27 10:46:35;;;;;;;5.68;2.10;;;;;;;;;;5048773;28;20025;-74
2021/07/27 10:49:03;;;;;;;6.47;1.30;;;;;;;;;;5052071;28;20021;-72
2021/07/27 10:51:33;;;;;;;5.32;1.02;;;;;;;;;;5047313;28;20162;-72
2021/07/27 10:54:02;;;;;;;4.45;1.00;;;;;;;;;;5048080;28;20753;-73
2021/07/27 10:56:30;;;;;;;3.95;1.00;;;;;;;;;;5050122;28;20017;-72
2021/07/27 10:58:58;;;;;;;4.97;1.60;;;;;;;;;;5051366;28;20029;-72
2021/07/27 11:01:32;;;;;;;13.38;1.95;;;;;;;;;;5049300;28;20083;-73
2021/07/27 11:04:12;;;;;;;4.53;0.98;;;;;;;;;;5048067;28;20037;-72
2021/07/27 11:06:39;;;;;;;6.32;1.38;;;;;;;;;;5049230;28;20032;-72
2021/07/27 11:09:11;;;;;;;3.33;0.85;;;;;;;;;;5050440;28;20066;-70
2021/07/27 11:11:49;;;;;;;6.28;0.90;;;;;;;;;;5049587;28;20044;-73
2021/07/27 11:14:21;;;;;;;3.42;0.65;;;;;;;;;;5049254;28;20422;-72
2021/07/27 11:16:48;;;;;;;5.35;1.30;;;;;;;;;;5047075;28;20466;-72
2021/07/27 11:19:29;;;;;;;4.18;0.88;;;;;;;;;;5049118;28;20024;-73
2021/07/27 11:21:57;;;;;;;5.75;1.30;;;;;;;;;;5046676;28;20037;-73
2021/07/27 11:24:24;;;;;;;3.85;0.85;;;;;;;;;;5038775;28;20041;-73
2021/07/27 11:26:52;;;;;;;5.20;0.70;;;;;;;;;;5046933;28;20547;-73
2021/07/27 11:29:20;;;;;;;3.10;0.55;;;;;;;;;;5043203;28;20087;-73
2021/07/27 11:31:51;;;;;;;4.18;1.00;;;;;;;;;;5043959;28;20120;-73
2021/07/27 11:34:29;;;;;;;4.45;0.88;;;;;;;;;;5051420;28;20083;-73
2021/07/27 11:36:57;;;;;;;6.57;1.77;;;;;;;;;;5051184;28;20489;-73
2021/07/27 11:39:24;;;;;;;4.57;0.85;;;;;;;;;;5052970;28;20059;-73
2021/07/27 11:42:04;;;;;;;4.85;1.08;;;;;;;;;;5051115;28;20021;-73
2021/07/27 11:44:31;;;;;;;3.60;0.90;;;;;;;;;;5052619;28;20083;-73
2021/07/27 11:46:59;;;;;;;5.68;1.25;;;;;;;;;;5042116;28;20021;-73
2021/07/27 11:49:27;;;;;;;4.90;0.98;;;;;;;;;;5037268;28;20049;-72
2021/07/27 11:52:05;;;;;;;4.72;0.80;;;;;;;;;;5049689;28;20021;-72
2021/07/27 11:54:33;;;;;;;2.83;0.70;;;;;;;;;;5052227;28;20035;-74
2021/07/27 11:57:01;;;;;;;5.05;0.50;;;;;;;;;;5047665;28;20029;-74
2021/07/27 11:59:28;;;;;;;3.00;0.85;;;;;;;;;;5044765;28;20028;-74
2021/07/27 12:01:56;;;;;;;6.43;1.08;;;;;;;;;;5049424;28;20021;-73
2021/07/27 12:04:24;;;;;;;5.97;1.02;;;;;;;;;;5049551;28;20068;-73
2021/07/27 12:06:52;;;;;;;5.32;0.73;;;;;;;;;;5056109;28;20052;-76
2021/07/27 12:09:22;;;;;;;4.28;1.00;;;;;;;;;;5033420;28;20544;-73
2021/07/27 12:11:50;;;;;;;3.75;0.47;;;;;;;;;;5049062;28;20130;-72
2021/07/27 12:14:18;;;;;;;2.72;0.80;;;;;;;;;;5049432;28;20040;-77
2021/07/27 12:16:47;;;;;;;2.90;0.65;;;;;;;;;;5047776;28;20077;-73
2021/07/27 12:19:14;;;;;;;5.22;0.98;;;;;;;;;;5047187;28;20025;-75
2021/07/27 12:21:41;;;;;;;10.43;1.20;;;;;;;;;;5048477;28;20021;-73
2021/07/27 12:24:08;;;;;;;5.25;0.80;;;;;;;;;;5046715;28;20025;-73
2021/07/27 12:26:36;;;;;;;4.47;0.60;;;;;;;;;;5047593;28;20076;-74
2021/07/27 12:29:04;;;;;;;4.22;0.50;;;;;;;;;;5049790;28;20032;-73
2021/07/27 12:31:31;;;;;;;2.15;0.50;;;;;;;;;;5046599;28;20100;-73
2021/07/27 12:33:59;;;;;;;5.35;0.70;;;;;;;;;;5049229;28;20032;-74
2021/07/27 12:36:26;;;;;;;3.55;0.88;;;;;;;;;;5049573;28;20055;-73
2021/07/27 12:38:53;;;;;;;5.18;0.60;;;;;;;;;;5049070;28;20037;-74
2021/07/27 12:41:20;;;;;;;5.93;1.13;;;;;;;;;;5046582;28;20033;-72
2021/07/27 12:43:47;;;;;;;3.08;0.77;;;;;;;;;;5051290;28;20033;-73
2021/07/27 12:46:15;;;;;;;4.93;0.60;;;;;;;;;;5049977;28;20024;-73
2021/07/27 12:48:42;;;;;;;4.82;0.60;;;;;;;;;;5049773;28;20032;-72
2021/07/27 12:51:09;;;;;;;3.83;0.82;;;;;;;;;;5049084;28;20504;-73
2021/07/27 12:53:36;;;;;;;7.15;1.20;;;;;;;;;;5050903;28;20021;-73
2021/07/27 12:56:04;;;;;;;6.53;1.10;;;;;;;;;;5050054;28;20047;-74
2021/07/27 12:58:31;;;;;;;10.20;1.60;;;;;;;;;;5048077;28;20117;-73
2021/07/27 13:00:58;;;;;;;5.63;0.85;;;;;;;;;;5047623;28;20067;-73
2021/07/27 13:03:26;;;;;;;3.65;1.13;;;;;;;;;;5049907;28;20036;-73
2021/07/27 13:05:56;;;;;;;4.13;0.85;;;;;;;;;;5051103;28;20474;-73
2021/07/27 13:08:24;;;;;;;5.07;1.13;;;;;;;;;;5049741;28;20025;-73
2021/07/27 13:10:51;;;;;;;5.60;1.05;;;;;;;;;;5029814;28;20029;-73
2021/07/27 13:13:18;;;;;;;4.88;0.80;;;;;;;;;;5048523;28;20060;-73
2021/07/27 13:15:46;;;;;;;2.90;0.68;;;;;;;;;;5048678;28;20441;-74
2021/07/27 13:18:16;;;;;;;5.63;0.50;;;;;;;;;;5051598;28;20538;-72
2021/07/27 13:20:44;;;;;;;3.25;0.77;;;;;;;;;;5050327;28;20512;-72
2021/07/27 13:23:11;;;;;;;3.60;0.93;;;;;;;;;;5047183;28;20466;-73
2021/07/27 13:25:38;;;;;;;4.50;1.05;;;;;;;;;;5047846;28;20091;-71
2021/07/27 13:28:05;;;;;;;4.78;0.98;;;;;;;;;;5048956;28;20083;-72
2021/07/27 13:30:33;;;;;;;6.28;0.85;;;;;;;;;;5048737;28;20028;-72
2021/07/27 13:33:00;;;;;;;4.47;0.70;;;;;;;;;;5048013;28;20023;-72
2021/07/27 13:35:30;;;;;;;4.68;0.65;;;;;;;;;;5047532;28;20506;-73
2021/07/27 13:37:57;;;;;;;3.33;0.82;;;;;;;;;;5046906;28;20040;-73
2021/07/27 13:40:25;;;;;;;6.32;0.90;;;;;;;;;;5049359;28;20033;-73
2021/07/27 13:42:52;;;;;;;3.92;1.00;;;;;;;;;;5048797;28;20021;-73
2021/07/27 13:45:19;;;;;;;4.97;1.30;;;;;;;;;;5048907;28;20369;-72
2021/07/27 13:47:46;;;;;;;4.43;0.70;;;;;;;;;;5045130;28;20334;-73
2021/07/27 13:50:13;;;;;;;3.53;0.50;;;;;;;;;;5047643;28;20032;-72
2021/07/27 13:52:40;;;;;;;5.03;0.60;;;;;;;;;;5048500;28;20166;-72
2021/07/27 13:55:08;;;;;;;4.43;0.93;;;;;;;;;;5049636;28;20021;-73
2021/07/27 13:57:36;;;;;;;3.88;0.73;;;;;;;;;;5051600;28;20484;-73
2021/07/27 14:00:04;;;;;;;4.30;1.25;;;;;;;;;;5051791;28;20082;-72
2021/07/27 14:02:31;;;;;;;2.85;0.80;;;;;;;;;;5051118;28;20131;-72
2021/07/27 14:04:59;;;;;;;4.90;0.98;;;;;;;;;;5051524;28;20381;-72
2021/07/27 14:07:26;;;;;;;3.22;1.13;;;;;;;;;;5050977;28;20025;-73
2021/07/27 14:09:57;;;;;;;5.07;0.70;;;;;;;;;;5052733;28;20044;-72
2021/07/27 14:12:27;;;;;;;;;;;;;;;;;;5052375;28;20421;-73
2021/07/27 14:14:54;;;;;;;2.13;0.60;;;;;;;;;;5060562;28;20426;-73
2021/07/27 14:17:21;;;;;;;5.18;0.50;;;;;;;;;;5052719;28;20029;-72
2021/07/27 14:19:48;;;;;;;3.50;1.23;;;;;;;;;;5054193;28;20033;-72
2021/07/27 14:22:16;;;;;;;4.20;0.60;;;;;;;;;;5042526;28;20023;-72
2021/07/27 14:24:43;;;;;;;3.30;0.70;;;;;;;;;;5053542;28;20032;-72
2021/07/27 14:27:14;;;;;;;7.63;0.60;;;;;;;;;;5051184;28;20048;-72
2021/07/27 14:29:41;;;;;;;3.95;0.85;;;;;;;;;;5050998;28;20025;-73
2021/07/27 14:32:08;;;;;;;3.95;0.65;;;;;;;;;;5052418;28;20021;-73
2021/07/27 14:34:35;;;;;;;2.60;0.70;;;;;;;;;;5052387;28;20055;-73
2021/07/27 14:37:05;;;;;;;6.65;0.90;;;;;;;;;;5052018;28;20021;-73
2021/07/27 14:39:32;;;;;;;3.28;0.52;;;;;;;;;;5052461;28;20482;-73
2021/07/27 14:41:59;;;;;;;2.65;0.60;;;;;;;;;;5052421;28;20082;-72
2021/07/27 14:44:26;;;;;;;3.65;0.75;;;;;;;;;;5050271;28;20025;-72
2021/07/27 14:46:53;;;;;;;3.67;0.50;;;;;;;;;;5050529;28;20401;-72
2021/07/27 14:49:23;;;;;;;3.55;0.57;;;;;;;;;;5051344;28;20022;-73
2021/07/27 14:51:51;;;;;;;2.42;0.63;;;;;;;;;;5051332;28;20017;-72
2021/07/27 14:54:18;;;;;;;4.95;1.15;;;;;;;;;;5052324;28;20056;-73
2021/07/27 14:56:45;;;;;;;4.93;0.80;;;;;;;;;;5046284;28;20024;-72
2021/07/27 14:59:12;;;;;;;3.17;0.70;;;;;;;;;;5049984;28;20017;-72
2021/07/27 15:01:39;;;;;;;6.28;0.82;;;;;;;;;;5042558;28;20036;-72
2021/07/27 15:04:06;;;;;;;3.33;1.00;;;;;;;;;;5051842;28;20064;-72
2021/07/27 15:06:34;;;;;;;4.20;0.77;;;;;;;;;;5050741;28;20029;-72
2021/07/27 15:09:01;;;;;;;7.55;0.63;;;;;;;;;;5053425;28;20110;-72